sensor_id;sensor_type;location;lat;lon;timestamp;pressure;altitude;pressure_sealevel;temperature;humidity
4858;BME280;58975;51.978;8.472;2023-04-15T00:03:25;99635.38;;;4.61;100.00
4858;BME280;58975;51.978;8.472;2023-04-15T00:08:21;99637.06;;;4.49;100.00
4858;BME280;58975;51.978;8.472;2023-04-15T00:13:18;99637.91;;;4.62;100.00
4858;BME280;58975;51.978;8.472;2023-04-15T00:18:14;99633.06;;;4.69;100.00
4858;BME280;58975;51.978;8.472;2023-04-15T00:23:10;99623.56;;;4.54;100.00
4858;BME280;58975;51.978;8.472;2023-04-15T00:28:06;99629.66;;;4.42;100.00
4858;BME280;58975;51.978;8.472;2023-04-15T00:33:03;99621.44;;;4.34;100.00
4858;BME280;58975;51.978;8.472;2023-04-15T00:37:59;99624.66;;;4.24;100.00
4858;BME280;58975;51.978;8.472;2023-04-15T00:42:56;99622.84;;;4.12;100.00
4858;BME280;58975;51.978;8.472;2023-04-15T00:47:52;99618.59;;;3.97;100.00
4858;BME280;58975;51.978;8.472;2023-04-15T00:52:49;99615.41;;;3.92;100.00
4858;BME280;58975;51.978;8.472;2023-04-15T00:57:45;99618.25;;;3.89;100.00
4858;BME280;58975;51.978;8.472;2023-04-15T01:02:41;99615.81;;;3.86;100.00
4858;BME280;58975;51.978;8.472;2023-04-15T01:07:38;99615.81;;;3.86;100.00
4858;BME280;58975;51.978;8.472;2023-04-15T01:12:34;99615.72;;;3.88;100.00
4858;BME280;58975;51.978;8.472;2023-04-15T01:17:31;99616.88;;;3.84;100.00
4858;BME280;58975;51.978;8.472;2023-04-15T01:22:28;99620.38;;;3.84;100.00
4858;BME280;58975;51.978;8.472;2023-04-15T01:27:24;99617.53;;;3.87;100.00
4858;BME280;58975;51.978;8.472;2023-04-15T01:32:20;99624.16;;;3.66;100.00
4858;BME280;58975;51.978;8.472;2023-04-15T01:37:16;99623.72;;;3.59;100.00
4858;BME280;58975;51.978;8.472;2023-04-15T01:42:13;99614.53;;;3.52;100.00
4858;BME280;58975;51.978;8.472;2023-04-15T01:47:09;99627.56;;;3.68;100.00
4858;BME280;58975;51.978;8.472;2023-04-15T01:52:05;99631.78;;;3.70;100.00
4858;BME280;58975;51.978;8.472;2023-04-15T01:57:02;99633.31;;;3.87;100.00
4858;BME280;58975;51.978;8.472;2023-04-15T02:01:58;99643.78;;;4.01;100.00
4858;BME280;58975;51.978;8.472;2023-04-15T02:06:55;99639.63;;;4.24;100.00
4858;BME280;58975;51.978;8.472;2023-04-15T02:11:51;99640.59;;;4.36;100.00
4858;BME280;58975;51.978;8.472;2023-04-15T02:16:49;99644.97;;;4.49;100.00
4858;BME280;58975;51.978;8.472;2023-04-15T02:21:46;99648.03;;;4.56;100.00
4858;BME280;58975;51.978;8.472;2023-04-15T02:26:42;99646.22;;;4.44;100.00
4858;BME280;58975;51.978;8.472;2023-04-15T02:31:38;99646.34;;;4.42;100.00
4858;BME280;58975;51.978;8.472;2023-04-15T02:36:37;99641.69;;;4.46;100.00
4858;BME280;58975;51.978;8.472;2023-04-15T02:41:34;99643.16;;;4.37;100.00
4858;BME280;58975;51.978;8.472;2023-04-15T02:46:30;99649.28;;;4.38;100.00
4858;BME280;58975;51.978;8.472;2023-04-15T02:51:29;99649.06;;;4.41;100.00
4858;BME280;58975;51.978;8.472;2023-04-15T02:56:27;99652.44;;;4.43;100.00
4858;BME280;58975;51.978;8.472;2023-04-15T03:01:23;99654.53;;;4.38;100.00
4858;BME280;58975;51.978;8.472;2023-04-15T03:06:19;99657.19;;;4.38;100.00
4858;BME280;58975;51.978;8.472;2023-04-15T03:11:16;99650.63;;;4.31;100.00
4858;BME280;58975;51.978;8.472;2023-04-15T03:16:13;99643.13;;;4.24;100.00
4858;BME280;58975;51.978;8.472;2023-04-15T03:21:10;99645.41;;;4.16;100.00
4858;BME280;58975;51.978;8.472;2023-04-15T03:26:06;99638.94;;;4.08;100.00
4858;BME280;58975;51.978;8.472;2023-04-15T03:31:02;99633.66;;;3.95;100.00
4858;BME280;58975;51.978;8.472;2023-04-15T03:35:58;99633.50;;;4.11;100.00
4858;BME280;58975;51.978;8.472;2023-04-15T03:40:55;99636.47;;;3.92;100.00
4858;BME280;58975;51.978;8.472;2023-04-15T03:45:51;99643.06;;;3.99;100.00
4858;BME280;58975;51.978;8.472;2023-04-15T03:50:47;99658.66;;;4.02;100.00
4858;BME280;58975;51.978;8.472;2023-04-15T03:55:44;99657.41;;;4.08;100.00
4858;BME280;58975;51.978;8.472;2023-04-15T04:00:40;99669.00;;;4.05;100.00
4858;BME280;58975;51.978;8.472;2023-04-15T04:05:37;99669.00;;;4.05;100.00
4858;BME280;58975;51.978;8.472;2023-04-15T04:10:36;99685.06;;;4.15;100.00
4858;BME280;58975;51.978;8.472;2023-04-15T04:15:32;99678.94;;;4.14;100.00
4858;BME280;58975;51.978;8.472;2023-04-15T04:20:29;99677.66;;;4.07;100.00
4858;BME280;58975;51.978;8.472;2023-04-15T04:25:27;99676.19;;;4.16;100.00
4858;BME280;58975;51.978;8.472;2023-04-15T04:30:23;99687.31;;;4.34;100.00
4858;BME280;58975;51.978;8.472;2023-04-15T04:35:19;99683.75;;;4.35;100.00
4858;BME280;58975;51.978;8.472;2023-04-15T04:40:17;99683.88;;;4.46;100.00
4858;BME280;58975;51.978;8.472;2023-04-15T04:45:13;99670.38;;;4.63;100.00
4858;BME280;58975;51.978;8.472;2023-04-15T04:50:09;99677.13;;;4.67;100.00
4858;BME280;58975;51.978;8.472;2023-04-15T04:55:06;99676.53;;;4.76;100.00
4858;BME280;58975;51.978;8.472;2023-04-15T05:00:04;99678.75;;;4.82;100.00
4858;BME280;58975;51.978;8.472;2023-04-15T05:05:01;99683.59;;;4.88;100.00
4858;BME280;58975;51.978;8.472;2023-04-15T05:09:57;99675.06;;;4.85;100.00
4858;BME280;58975;51.978;8.472;2023-04-15T05:14:53;99684.16;;;4.93;100.00
4858;BME280;58975;51.978;8.472;2023-04-15T05:19:50;99691.63;;;4.99;100.00
4858;BME280;58975;51.978;8.472;2023-04-15T05:24:46;99687.72;;;5.05;100.00
4858;BME280;58975;51.978;8.472;2023-04-15T05:29:42;99680.44;;;5.08;100.00
4858;BME280;58975;51.978;8.472;2023-04-15T05:34:39;99686.03;;;5.16;100.00
4858;BME280;58975;51.978;8.472;2023-04-15T05:39:35;99685.59;;;5.22;100.00
4858;BME280;58975;51.978;8.472;2023-04-15T05:44:31;99692.13;;;5.30;100.00
4858;BME280;58975;51.978;8.472;2023-04-15T05:49:28;99688.22;;;5.22;100.00
4858;BME280;58975;51.978;8.472;2023-04-15T05:54:24;99697.97;;;5.09;100.00
4858;BME280;58975;51.978;8.472;2023-04-15T05:59:22;99706.63;;;5.11;100.00
4858;BME280;58975;51.978;8.472;2023-04-15T06:04:19;99712.44;;;5.16;100.00
4858;BME280;58975;51.978;8.472;2023-04-15T06:09:15;99720.84;;;5.21;100.00
4858;BME280;58975;51.978;8.472;2023-04-15T06:14:13;99730.69;;;5.32;100.00
4858;BME280;58975;51.978;8.472;2023-04-15T06:19:09;99730.03;;;5.41;100.00
4858;BME280;58975;51.978;8.472;2023-04-15T06:24:07;99730.16;;;5.40;100.00
4858;BME280;58975;51.978;8.472;2023-04-15T06:29:03;99726.03;;;5.36;100.00
4858;BME280;58975;51.978;8.472;2023-04-15T06:33:59;99727.06;;;5.46;100.00
4858;BME280;58975;51.978;8.472;2023-04-15T06:38:56;99741.34;;;5.56;100.00
4858;BME280;58975;51.978;8.472;2023-04-15T06:43:52;99736.22;;;5.65;100.00
4858;BME280;58975;51.978;8.472;2023-04-15T06:48:49;99736.91;;;5.56;100.00
4858;BME280;58975;51.978;8.472;2023-04-15T06:53:45;99736.38;;;5.51;100.00
4858;BME280;58975;51.978;8.472;2023-04-15T06:58:41;99741.97;;;5.47;100.00
4858;BME280;58975;51.978;8.472;2023-04-15T07:03:37;99742.59;;;5.50;100.00
4858;BME280;58975;51.978;8.472;2023-04-15T07:08:34;99745.47;;;5.47;100.00
4858;BME280;58975;51.978;8.472;2023-04-15T07:13:30;99747.78;;;5.39;100.00
4858;BME280;58975;51.978;8.472;2023-04-15T07:18:27;99743.88;;;5.45;100.00
4858;BME280;58975;51.978;8.472;2023-04-15T07:23:23;99748.09;;;5.35;100.00
4858;BME280;58975;51.978;8.472;2023-04-15T07:28:20;99753.69;;;5.43;100.00
4858;BME280;58975;51.978;8.472;2023-04-15T07:33:16;99764.34;;;5.54;100.00
4858;BME280;58975;51.978;8.472;2023-04-15T07:38:12;99772.72;;;5.48;100.00
4858;BME280;58975;51.978;8.472;2023-04-15T07:43:09;99766.59;;;5.47;100.00
4858;BME280;58975;51.978;8.472;2023-04-15T07:48:05;99781.69;;;5.45;100.00
4858;BME280;58975;51.978;8.472;2023-04-15T07:53:03;99780.41;;;5.51;100.00
4858;BME280;58975;51.978;8.472;2023-04-15T07:57:59;99792.38;;;5.56;100.00
4858;BME280;58975;51.978;8.472;2023-04-15T08:02:55;99793.72;;;5.62;100.00
4858;BME280;58975;51.978;8.472;2023-04-15T08:07:52;99805.25;;;5.86;100.00
4858;BME280;58975;51.978;8.472;2023-04-15T08:12:49;99812.53;;;5.95;100.00
4858;BME280;58975;51.978;8.472;2023-04-15T08:17:45;99814.63;;;6.03;100.00
4858;BME280;58975;51.978;8.472;2023-04-15T08:22:42;99820.13;;;6.00;100.00
4858;BME280;58975;51.978;8.472;2023-04-15T08:27:38;99813.03;;;6.00;100.00
4858;BME280;58975;51.978;8.472;2023-04-15T08:32:34;99811.66;;;6.07;100.00
4858;BME280;58975;51.978;8.472;2023-04-15T08:37:31;99823.03;;;6.21;100.00
4858;BME280;58975;51.978;8.472;2023-04-15T08:42:30;99826.81;;;6.29;100.00
4858;BME280;58975;51.978;8.472;2023-04-15T08:47:28;99824.50;;;6.25;100.00
4858;BME280;58975;51.978;8.472;2023-04-15T08:52:25;99816.63;;;6.36;100.00
4858;BME280;58975;51.978;8.472;2023-04-15T08:57:23;99818.09;;;6.40;100.00
4858;BME280;58975;51.978;8.472;2023-04-15T09:02:21;99824.66;;;6.47;100.00
4858;BME280;58975;51.978;8.472;2023-04-15T09:07:18;99823.13;;;6.55;100.00
4858;BME280;58975;51.978;8.472;2023-04-15T09:12:14;99817.00;;;6.55;100.00
4858;BME280;58975;51.978;8.472;2023-04-15T09:17:12;99811.50;;;6.58;100.00
4858;BME280;58975;51.978;8.472;2023-04-15T09:22:08;99829.69;;;6.62;100.00
4858;BME280;58975;51.978;8.472;2023-04-15T09:27:05;99830.94;;;7.04;100.00
4858;BME280;58975;51.978;8.472;2023-04-15T09:32:11;99832.72;;;6.93;100.00
4858;BME280;58975;51.978;8.472;2023-04-15T09:37:08;99844.22;;;7.16;100.00
4858;BME280;58975;51.978;8.472;2023-04-15T09:42:06;99848.69;;;6.91;100.00
4858;BME280;58975;51.978;8.472;2023-04-15T09:47:03;99844.59;;;6.87;100.00
4858;BME280;58975;51.978;8.472;2023-04-15T09:52:02;99844.59;;;6.87;100.00
4858;BME280;58975;51.978;8.472;2023-04-15T09:57:07;99857.41;;;7.04;100.00
4858;BME280;58975;51.978;8.472;2023-04-15T10:02:05;99853.28;;;6.89;100.00
4858;BME280;58975;51.978;8.472;2023-04-15T10:07:03;99874.88;;;6.83;100.00
4858;BME280;58975;51.978;8.472;2023-04-15T10:12:01;99872.41;;;6.93;100.00
4858;BME280;58975;51.978;8.472;2023-04-15T10:16:57;99869.03;;;6.91;100.00
4858;BME280;58975;51.978;8.472;2023-04-15T10:21:57;99875.63;;;6.85;100.00
4858;BME280;58975;51.978;8.472;2023-04-15T10:26:53;99885.03;;;6.89;100.00
4858;BME280;58975;51.978;8.472;2023-04-15T10:31:50;99874.22;;;6.92;100.00
4858;BME280;58975;51.978;8.472;2023-04-15T10:36:47;99883.38;;;6.99;100.00
4858;BME280;58975;51.978;8.472;2023-04-15T10:41:43;99887.22;;;6.95;100.00
4858;BME280;58975;51.978;8.472;2023-04-15T10:46:40;99884.56;;;6.95;100.00
4858;BME280;58975;51.978;8.472;2023-04-15T10:51:41;99898.94;;;7.04;100.00
4858;BME280;58975;51.978;8.472;2023-04-15T10:56:40;99904.31;;;7.02;100.00
4858;BME280;58975;51.978;8.472;2023-04-15T11:01:48;99915.44;;;7.07;100.00
4858;BME280;58975;51.978;8.472;2023-04-15T11:06:45;99921.56;;;7.08;100.00
4858;BME280;58975;51.978;8.472;2023-04-15T11:12:03;99915.44;;;7.07;100.00
4858;BME280;58975;51.978;8.472;2023-04-15T11:17:00;99924.13;;;7.09;100.00
4858;BME280;58975;51.978;8.472;2023-04-15T11:21:56;99928.09;;;7.15;100.00
4858;BME280;58975;51.978;8.472;2023-04-15T11:26:56;99930.41;;;7.20;100.00
4858;BME280;58975;51.978;8.472;2023-04-15T11:32:00;99930.19;;;7.23;100.00
4858;BME280;58975;51.978;8.472;2023-04-15T11:36:57;99944.28;;;7.23;100.00
4858;BME280;58975;51.978;8.472;2023-04-15T11:41:53;99949.09;;;7.29;100.00
4858;BME280;58975;51.978;8.472;2023-04-15T11:46:50;99950.94;;;7.29;100.00
4858;BME280;58975;51.978;8.472;2023-04-15T11:51:46;99960.78;;;7.27;100.00
4858;BME280;58975;51.978;8.472;2023-04-15T11:56:42;99962.34;;;7.29;100.00
4858;BME280;58975;51.978;8.472;2023-04-15T12:01:45;99963.44;;;7.27;100.00
4858;BME280;58975;51.978;8.472;2023-04-15T12:06:43;99965.13;;;7.28;100.00
4858;BME280;58975;51.978;8.472;2023-04-15T12:11:41;99974.78;;;7.29;100.00
4858;BME280;58975;51.978;8.472;2023-04-15T12:16:39;99977.41;;;7.29;100.00
4858;BME280;58975;51.978;8.472;2023-04-15T12:21:45;99986.84;;;7.33;100.00
4858;BME280;58975;51.978;8.472;2023-04-15T12:26:43;99989.47;;;7.33;100.00
4858;BME280;58975;51.978;8.472;2023-04-15T12:31:46;100003.69;;;7.32;100.00
4858;BME280;58975;51.978;8.472;2023-04-15T12:36:44;100009.34;;;7.38;100.00
4858;BME280;58975;51.978;8.472;2023-04-15T12:41:40;100008.75;;;7.35;100.00
4858;BME280;58975;51.978;8.472;2023-04-15T12:46:36;100021.75;;;7.38;100.00
4858;BME280;58975;51.978;8.472;2023-04-15T12:51:33;100023.91;;;7.33;100.00
4858;BME280;58975;51.978;8.472;2023-04-15T12:56:29;100028.22;;;7.34;100.00
4858;BME280;58975;51.978;8.472;2023-04-15T13:01:25;100031.72;;;7.34;100.00
4858;BME280;58975;51.978;8.472;2023-04-15T13:06:22;100031.63;;;7.36;100.00
4858;BME280;58975;51.978;8.472;2023-04-15T13:11:20;100042.31;;;7.34;100.00
4858;BME280;58975;51.978;8.472;2023-04-15T13:16:17;100042.00;;;7.39;100.00
4858;BME280;58975;51.978;8.472;2023-04-15T13:21:13;100039.34;;;7.39;100.00
4858;BME280;58975;51.978;8.472;2023-04-15T13:26:10;100054.28;;;7.40;100.00
4858;BME280;58975;51.978;8.472;2023-04-15T13:31:07;100046.56;;;7.37;100.00
4858;BME280;58975;51.978;8.472;2023-04-15T13:36:05;100067.03;;;7.35;100.00
4858;BME280;58975;51.978;8.472;2023-04-15T13:41:01;100079.53;;;7.33;100.00
4858;BME280;58975;51.978;8.472;2023-04-15T13:45:58;100080.34;;;7.33;100.00
4858;BME280;58975;51.978;8.472;2023-04-15T13:50:54;100085.78;;;7.32;100.00
4858;BME280;58975;51.978;8.472;2023-04-15T13:55:50;100102.63;;;7.31;100.00
4858;BME280;58975;51.978;8.472;2023-04-15T14:00:47;100120.00;;;7.35;100.00
4858;BME280;58975;51.978;8.472;2023-04-15T14:05:43;100130.28;;;7.27;100.00
4858;BME280;58975;51.978;8.472;2023-04-15T14:10:40;100135.59;;;7.27;100.00
4858;BME280;58975;51.978;8.472;2023-04-15T14:15:39;100139.19;;;7.26;100.00
4858;BME280;58975;51.978;8.472;2023-04-15T14:20:36;100164.72;;;7.27;100.00
4858;BME280;58975;51.978;8.472;2023-04-15T14:25:32;100181.56;;;7.26;100.00
4858;BME280;58975;51.978;8.472;2023-04-15T14:30:29;100192.91;;;7.28;100.00
4858;BME280;58975;51.978;8.472;2023-04-15T14:35:26;100201.09;;;7.25;100.00
4858;BME280;58975;51.978;8.472;2023-04-15T14:40:22;100207.00;;;7.28;100.00
4858;BME280;58975;51.978;8.472;2023-04-15T14:45:18;100231.69;;;7.29;100.00
4858;BME280;58975;51.978;8.472;2023-04-15T14:50:15;100249.25;;;7.30;100.00
4858;BME280;58975;51.978;8.472;2023-04-15T14:55:12;100267.50;;;7.34;100.00
4858;BME280;58975;51.978;8.472;2023-04-15T15:00:09;100279.88;;;7.34;100.00
4858;BME280;58975;51.978;8.472;2023-04-15T15:05:09;100281.69;;;7.33;100.00
4858;BME280;58975;51.978;8.472;2023-04-15T15:10:07;100299.28;;;7.34;100.00
4858;BME280;58975;51.978;8.472;2023-04-15T15:15:04;100319.44;;;7.37;100.00
4858;BME280;58975;51.978;8.472;2023-04-15T15:20:11;100328.31;;;7.36;100.00
4858;BME280;58975;51.978;8.472;2023-04-15T15:25:07;100349.00;;;7.43;100.00
4858;BME280;58975;51.978;8.472;2023-04-15T15:30:03;100348.88;;;7.45;100.00
4858;BME280;58975;51.978;8.472;2023-04-15T15:35:02;100374.34;;;7.47;100.00
4858;BME280;58975;51.978;8.472;2023-04-15T15:39:58;100378.78;;;7.47;100.00
4858;BME280;58975;51.978;8.472;2023-04-15T15:44:56;100393.72;;;7.48;100.00
4858;BME280;58975;51.978;8.472;2023-04-15T15:49:53;100400.72;;;7.49;100.00
4858;BME280;58975;51.978;8.472;2023-04-15T15:54:49;100411.44;;;7.47;100.00
4858;BME280;58975;51.978;8.472;2023-04-15T15:59:46;100426.25;;;7.50;100.00
4858;BME280;58975;51.978;8.472;2023-04-15T16:04:42;100436.13;;;7.48;100.00
4858;BME280;58975;51.978;8.472;2023-04-15T16:09:38;100437.72;;;7.50;100.00
4858;BME280;58975;51.978;8.472;2023-04-15T16:14:36;100457.84;;;7.53;100.00
4858;BME280;58975;51.978;8.472;2023-04-15T16:19:32;100474.72;;;7.52;100.00
4858;BME280;58975;51.978;8.472;2023-04-15T16:24:29;100474.72;;;7.52;100.00
4858;BME280;58975;51.978;8.472;2023-04-15T16:29:27;100487.97;;;7.52;100.00
4858;BME280;58975;51.978;8.472;2023-04-15T16:34:23;100501.94;;;7.54;100.00
4858;BME280;58975;51.978;8.472;2023-04-15T16:39:19;100505.38;;;7.56;100.00
4858;BME280;58975;51.978;8.472;2023-04-15T16:44:18;100516.81;;;7.56;100.00
4858;BME280;58975;51.978;8.472;2023-04-15T16:49:14;100522.00;;;7.58;100.00
4858;BME280;58975;51.978;8.472;2023-04-15T16:54:10;100526.34;;;7.59;100.00
4858;BME280;58975;51.978;8.472;2023-04-15T16:59:07;100537.59;;;7.63;100.00
4858;BME280;58975;51.978;8.472;2023-04-15T17:04:03;100550.00;;;7.62;100.00
4858;BME280;58975;51.978;8.472;2023-04-15T17:09:00;100557.75;;;7.65;100.00
4858;BME280;58975;51.978;8.472;2023-04-15T17:13:57;100564.38;;;7.72;100.00
4858;BME280;58975;51.978;8.472;2023-04-15T17:18:53;100566.16;;;7.72;100.00
4858;BME280;58975;51.978;8.472;2023-04-15T17:23:50;100564.88;;;7.77;100.00
4858;BME280;58975;51.978;8.472;2023-04-15T17:28:46;100564.88;;;7.77;100.00
4858;BME280;58975;51.978;8.472;2023-04-15T17:33:43;100551.63;;;7.77;100.00
4858;BME280;58975;51.978;8.472;2023-04-15T17:38:59;100560.13;;;7.82;100.00
4858;BME280;58975;51.978;8.472;2023-04-15T17:43:55;100565.53;;;7.81;100.00
4858;BME280;58975;51.978;8.472;2023-04-15T17:48:52;100563.00;;;7.79;100.00
4858;BME280;58975;51.978;8.472;2023-04-15T17:53:48;100555.25;;;7.76;100.00
4858;BME280;58975;51.978;8.472;2023-04-15T17:58:45;100562.25;;;7.77;100.00
4858;BME280;58975;51.978;8.472;2023-04-15T18:03:41;100570.94;;;7.79;100.00
4858;BME280;58975;51.978;8.472;2023-04-15T18:08:37;100573.50;;;7.81;100.00
4858;BME280;58975;51.978;8.472;2023-04-15T18:13:34;100573.59;;;7.79;100.00
